Aviation Digital Data Service (ADDS)

Output produced by METARs form (1200 UTC 17 December 2017)
found at http://aviationweather.gov/adds/metars/
 
KDAG 171150Z AUTO 00000KT 10SM CLR 07/M09 A2999 RMK AO2 SLP148 T00721094 10122 20061 51013
KDAG 171132Z 1712/1812 02008KT P6SM SCT090 SCT250 
     FM171800 03013KT P6SM FEW100 FEW250 
     FM180000 VRB05KT P6SM FEW250 
     FM180400 26007KT P6SM FEW250
       
KEDW 171158Z AUTO 07006KT 10SM CLR 05/M13 A3000 RMK AO2 SLPNO T00491135 10085 20049 52016
KONT 171153Z 04013G18KT 10SM FEW140 14/M07 A2983 RMK AO2 SLP093 RWY 08 TD WND 31006KT T01441067 10161 20094 53008
KONT 171139Z 1712/1818 05015G25KT P6SM SKC 
     FM171400 05025G40KT P6SM SKC 
     FM171900 05015G25KT P6SM SKC 
     FM180000 05008KT P6SM SKC 
     FM180700 VRB04KT P6SM SKC
       
KNID 171156Z AUTO 31015G21KT 10SM CLR 05/M12 A3002 RMK AO2 SLP168 60000 T00501117 10089 20050 51004 $
KSNA 171153Z AUTO 05008KT 10SM CLR 16/M06 A2981 RMK AO2 SLP093 T01611056 10167 20117 53008
KSNA 171139Z 1712/1812 VRB05KT P6SM SKC WS010/05035KT 
     FM171500 05015G25KT P6SM SKC 
     FM172000 06010G18KT P6SM SKC 
     FM180200 VRB05KT P6SM SKC WS010/07025KT 
     FM181000 VRB05KT P6SM SKC
       
KSAN 171151Z 00000KT 10SM SCT110 12/08 A2980 RMK AO2 SLP089 T01170083 10144 20111 50002
KSAN 171139Z 1712/1818 VRB04KT P6SM FEW100 WS010/04025KT 
     FM171600 VRB04KT P6SM FEW100 
     FM172100 30009KT P6SM SKC 
     FM180100 VRB04KT P6SM SKC
       
KNXP 171056Z AUTO 32018KT 10SM BKN110 10/M08 A2999 RMK AO2 PK WND 33026/1021 SLP136 T01001078 $
TAF KNXP 1709/1809 30010KT 9999 FEW200 QNH2993INS 
     FM171130 32015KT 9999 FEW200 QNH2996INS 
     TEMPO 1715/1721 34020G26KT 
     BECMG 1800/1802 30010KT 9999 FEW200 QNH3005INS AUTOMATED SENSOR METWATCH 1709 TIL 1815 T07/1711Z T15/1721Z
       
KPSP 171153Z AUTO 34010KT 10SM CLR 17/M06 A2989 RMK AO2 SLP121 T01671056 10189 20167 51012
KPSP 171139Z 1712/1812 34012G22KT P6SM SCT150 
     FM171900 01015G25KT P6SM SKC 
     FM172300 34009KT P6SM SKC 
     FM180100 VRB05KT P6SM SKC
       
KLAX 171153Z 35007KT 10SM CLR 15/M06 A2983 RMK AO2 SLP099 T01501056 10167 20128 53009
KLAX 171138Z 1712/1818 36008KT P6SM SKC WS010/02035KT 
     FM171600 04007KT P6SM SKC WS010/03035KT 
     FM172100 27008KT P6SM SKC 
     FM180300 VRB03KT P6SM SKC
       
KCNO 171153Z AUTO 02004KT 6SM HZ CLR 08/04 A2984 RMK AO2 SLP103 T00830044 10111 20056 53010
KSMO 171151Z AUTO 35009G20KT 300V030 10SM CLR 14/M08 A2982 RMK AO2 SLP098 T01441078 10161 20117 53007
KSMO 171138Z 1712/1812 36008G15KT P6SM SKC WS010/02035KT 
     FM171600 03008KT P6SM SKC WS010/03035KT 
     FM172000 25008KT P6SM SKC 
     FM180300 VRB03KT P6SM SKC
       
KLGB 171153Z AUTO 30003KT 5SM BR CLR 09/07 A2983 RMK AO2 SLP100 T00940072 10133 20089 53011
KLGB 171138Z 1712/1812 VRB03KT P6SM SKC 
     FM171500 02010KT P6SM SKC 
     FM172300 31008KT P6SM SKC 
     FM180300 VRB03KT P6SM SKC
       
KVNY 171151Z AUTO 36019G28KT 10SM CLR 13/M08 A2985 RMK AO2 PK WND 36031/1127 SLP103 T01281078 10161 20122 53011
KVNY 171138Z 1712/1812 35020G30KT P6SM SKC 
     FM171600 01027G37KT P6SM SKC 
     FM172200 01018G28KT P6SM SKC 
     FM180200 01012KT P6SM SKC
       
KBUR 171153Z 26004KT 10SM CLR 15/M06 A2983 RMK AO2 SLP091 T01501061 10172 20133 53007
KBUR 171138Z 1712/1812 VRB03KT P6SM SKC WS010/04035KT 
     FM172000 05012KT P6SM SKC 
     FM180100 VRB03KT P6SM SKC
       
KBFL 171154Z AUTO 14006KT 10SM CLR 06/M02 A2999 RMK AO2 SLP155 T00611017 10100 20056 51014
KBFL 171139Z 1712/1812 VRB04KT P6SM SKC
       
KPMD 171153Z AUTO 00000KT 10SM CLR 02/M09 A3002 RMK AO2 SLP163 T00221094 10089 20011 53012 TSNO
KPMD 171138Z 1712/1812 VRB03KT P6SM SKC 
     FM171500 06010KT P6SM SKC 
     FM171800 06018G28KT P6SM SKC 
     FM172300 06010KT P6SM SKC 
     FM180300 VRB03KT P6SM SKC
       
KOXR 171151Z AUTO 08015KT 10SM FU CLR 15/M09 A2986 RMK AO2 SLP109 T01501089 10156 20067 53007
KOXR 171138Z 1712/1812 05015G25KT P6SM SKC 
     FM171500 06022G32KT P6SM SKC 
     FM172200 07015G25KT P6SM SKC 
     FM180100 VRB03KT P6SM SKC 
     FM180900 06012KT P6SM SKC
       
KWJF 171156Z AUTO 11005KT 10SM CLR 01/M11 A3002 RMK AO2 SLP174 T00061111 10067 20000 53013
KWJF 171138Z 1712/1812 08010KT P6SM SKC 
     FM171800 06018G28KT P6SM SKC 
     FM172300 06010KT P6SM SKC 
     FM180300 VRB03KT P6SM SKC
       
KCMA 171155Z AUTO 07026G35KT 9SM FU CLR 16/M11 A2986 RMK AO2 PK WND 07035/1109 SLP121 T01611106 10172 20083 53011
KCMA 171138Z 1712/1812 06022G32KT P6SM SKC 
     FM171600 07032G42KT P6SM SKC 
     FM172200 07022G32KT P6SM SKC 
     FM180100 07015G25KT P6SM SKC 
     FM180400 07008KT P6SM SKC
       
KFAT 171153Z 16003KT 5SM HZ CLR 05/01 A2998 RMK AO2 SLP153 T00500011 10061 20039 50004
KFAT 171139Z 1712/1812 VRB04KT 6SM HZ SKC 
     TEMPO 1712/1716 3SM HZ
       
KEED 171156Z AUTO 02020G26KT 10SM CLR 14/M02 A2988 RMK AO2 PK WND 01026/1156 SLP104 T01391022 10150 20111 51006
KEED 171132Z 1712/1812 36016KT P6SM BKN140 
     FM171600 36016G26KT P6SM SCT120 SCT250 
     FM180100 35010KT P6SM FEW250
       
KLSV 171158Z AUTO 33004KT 10SM BKN100 OVC130 09/M06 A3000 RMK AO2 SLPNO T00931062 10123 20093 52016 $
TAF KLSV 170709Z 1707/1813 36009KT 9999 SCT100 BKN140 QNH2989INS 
     TEMPO 1707/1711 01015G25KT 520009 
     BECMG 1717/1718 01015G25KT 9999 SCT080 BKN120 520009 QNH2999INS 
     BECMG 1722/1723 36012KT 9999 FEW080 SCT120 QNH3000INS TX14/1722Z TN08/1712Z
       
KLAS 171156Z 35018G26KT 10SM FEW090 BKN120 10/M06 A2998 RMK AO2 PK WND 33028/1058 SLP146 T01001061 10122 20100 51013
KLAS 171132Z 1712/1818 34015G25KT P6SM SCT090 BKN120 
     FM172100 35010KT P6SM SCT120 SCT250 
     FM180300 32007KT P6SM SCT250 
     FM181200 VRB05KT P6SM SCT250
       
KHII 171135Z AUTO 35011G15KT 10SM FEW060 BKN075 13/M04 A2985 RMK AO2
KIFP 171155Z AUTO 36019G25KT 10SM CLR 13/M04 A2988 RMK AO2
KIFP 171132Z 1712/1812 36015G23KT P6SM BKN140 
     FM171600 36022G32KT P6SM SCT120 SCT250 
     FM180300 36015KT P6SM SCT250